createdAt,value
2019-03-18T00:00:51.395Z,0.77
2019-03-18T00:03:20.777Z,0.80
2019-03-18T00:05:50.186Z,0.72
2019-03-18T00:08:19.555Z,0.70
2019-03-18T00:10:48.928Z,0.90
2019-03-18T00:13:18.689Z,0.70
2019-03-18T00:15:49.352Z,0.70
2019-03-18T00:18:18.724Z,0.70
2019-03-18T00:20:48.327Z,0.57
2019-03-18T00:23:18.304Z,0.60
2019-03-18T00:25:47.672Z,1.20
2019-03-18T00:28:18.744Z,0.70
2019-03-18T00:30:49.663Z,0.80
2019-03-18T00:33:19.698Z,0.78
2019-03-18T00:35:49.590Z,0.60
2019-03-18T00:38:18.925Z,0.50
2019-03-18T00:40:48.298Z,0.83
2019-03-18T00:43:18.060Z,0.70
2019-03-18T00:45:47.433Z,0.60
2019-03-18T00:48:19.419Z,0.60
2019-03-18T00:50:48.833Z,0.70
2019-03-18T00:53:19.836Z,0.70
2019-03-18T00:55:51.609Z,0.60
2019-03-18T00:58:21.665Z,0.62
2019-03-18T01:00:51.234Z,0.70
2019-03-18T01:03:22.882Z,0.80
2019-03-18T01:05:54.490Z,0.70
2019-03-18T01:08:25.942Z,0.73
2019-03-18T01:10:55.564Z,0.60
2019-03-18T01:13:25.413Z,0.70
2019-03-18T01:15:54.916Z,0.90
2019-03-18T01:18:24.444Z,0.70
2019-03-18T01:20:53.860Z,0.97
2019-03-18T01:23:23.239Z,0.80
2019-03-18T01:25:52.608Z,0.93
2019-03-18T01:28:22.338Z,0.85
2019-03-18T01:30:52.044Z,0.80
2019-03-18T01:33:21.365Z,0.90
2019-03-18T01:35:51.367Z,1.00
2019-03-18T01:38:21.153Z,0.90
2019-03-18T01:40:50.545Z,0.70
2019-03-18T01:43:19.958Z,0.80
2019-03-18T01:45:49.334Z,0.80
2019-03-18T01:48:18.781Z,1.07
2019-03-18T01:50:49.541Z,2.70
2019-03-18T01:53:20.628Z,0.70
2019-03-18T01:55:49.998Z,0.85
2019-03-18T01:58:19.958Z,0.90
2019-03-18T02:00:49.698Z,0.87
2019-03-18T02:03:19.109Z,0.95
2019-03-18T02:05:50.923Z,0.80
2019-03-18T02:08:20.562Z,0.70
2019-03-18T02:10:49.948Z,0.90
2019-03-18T02:13:20.381Z,0.80
2019-03-18T02:15:53.488Z,0.97
2019-03-18T02:18:20.945Z,1.03
2019-03-18T02:20:50.626Z,1.00
2019-03-18T02:23:20.430Z,0.80
2019-03-18T02:25:49.729Z,1.03
2019-03-18T02:28:19.145Z,0.93
2019-03-18T02:30:48.522Z,1.00
2019-03-18T02:33:18.012Z,1.40
2019-03-18T02:35:51.890Z,1.00
2019-03-18T02:38:21.253Z,0.95
2019-03-18T02:40:50.623Z,1.00
2019-03-18T02:43:20.450Z,1.25
2019-03-18T02:45:49.841Z,1.10
2019-03-18T02:48:19.351Z,1.00
2019-03-18T02:50:48.761Z,1.47
2019-03-18T02:53:18.141Z,1.10
2019-03-18T02:55:47.531Z,0.93
2019-03-18T02:58:19.322Z,1.02
2019-03-18T03:00:48.706Z,1.10
2019-03-18T03:03:18.112Z,1.10
2019-03-18T03:05:48.244Z,1.00
2019-03-18T03:08:18.469Z,1.00
2019-03-18T03:10:47.818Z,1.00
2019-03-18T03:13:18.006Z,0.90
2019-03-18T03:15:47.374Z,1.10
2019-03-18T03:18:17.152Z,1.00
2019-03-18T03:20:46.550Z,1.07
2019-03-18T03:23:17.082Z,1.00
2019-03-18T03:25:48.820Z,1.23
2019-03-18T03:28:26.918Z,1.03
2019-03-18T03:30:56.274Z,1.03
2019-03-18T03:33:25.679Z,1.10
2019-03-18T03:35:55.682Z,1.30
2019-03-18T03:38:24.971Z,1.13
2019-03-18T03:40:54.353Z,1.20
2019-03-18T03:43:25.863Z,1.23
2019-03-18T03:45:55.230Z,1.52
2019-03-18T03:48:24.599Z,1.40
2019-03-18T03:50:54.004Z,1.50
2019-03-18T03:53:23.386Z,2.43
2019-03-18T03:55:53.591Z,1.40
2019-03-18T03:58:23.037Z,1.28
2019-03-18T04:00:52.392Z,1.60
2019-03-18T04:03:37.623Z,1.15
2019-03-18T04:05:57.223Z,1.40
2019-03-18T04:08:26.613Z,1.37
2019-03-18T04:10:58.451Z,1.60
2019-03-18T04:13:28.065Z,1.67
2019-03-18T04:15:57.570Z,1.50
2019-03-18T04:18:29.112Z,1.80
2019-03-18T04:20:59.162Z,1.80
2019-03-18T04:23:28.534Z,1.80
2019-03-18T04:26:00.493Z,1.53
2019-03-18T04:28:29.877Z,1.60
2019-03-18T04:30:59.256Z,1.73
2019-03-18T04:33:30.107Z,2.17
2019-03-18T04:36:01.647Z,1.70
2019-03-18T04:38:32.253Z,1.90
2019-03-18T04:41:02.379Z,1.60
2019-03-18T04:43:33.513Z,1.67
2019-03-18T04:46:05.802Z,1.97
2019-03-18T04:48:36.490Z,1.85
2019-03-18T04:51:08.761Z,1.50
2019-03-18T04:53:39.391Z,1.80
2019-03-18T04:56:08.724Z,2.10
2019-03-18T04:58:38.169Z,1.98
2019-03-18T05:01:08.202Z,1.50
2019-03-18T05:03:39.357Z,1.70
2019-03-18T05:06:10.939Z,2.00
2019-03-18T05:08:42.241Z,1.80
2019-03-18T05:11:14.828Z,2.00
2019-03-18T05:13:54.214Z,2.83
2019-03-18T05:16:45.482Z,2.70
2019-03-18T05:19:29.861Z,2.47
2019-03-18T05:22:08.521Z,2.50
2019-03-18T05:24:52.905Z,2.30
2019-03-18T05:27:40.703Z,2.30
2019-03-18T05:30:22.144Z,2.00
2019-03-18T05:32:59.133Z,3.67
2019-03-18T05:35:55.273Z,2.80
2019-03-18T05:38:48.008Z,2.80
2019-03-18T05:41:38.552Z,2.10
2019-03-18T05:44:23.095Z,3.17
2019-03-18T05:47:07.989Z,2.87
2019-03-18T05:49:54.259Z,3.13
2019-03-18T05:52:44.233Z,3.40
2019-03-18T05:55:30.530Z,3.30
2019-03-18T05:58:15.136Z,3.33
2019-03-18T06:01:00.181Z,4.73
2019-03-18T06:03:52.821Z,5.70
2019-03-18T06:06:37.959Z,3.22
2019-03-18T06:09:20.938Z,2.80
2019-03-18T06:12:15.333Z,2.10
2019-03-18T06:15:01.396Z,2.20
2019-03-18T06:17:57.671Z,3.27
2019-03-18T06:20:37.221Z,3.50
2019-03-18T06:26:22.623Z,2.37
2019-03-18T06:29:07.504Z,2.27
2019-03-18T06:31:51.783Z,2.20
2019-03-18T06:34:50.349Z,1.92
2019-03-18T06:37:38.707Z,1.90
2019-03-18T06:40:20.850Z,2.27
2019-03-18T06:43:11.456Z,2.70
2019-03-18T06:46:03.130Z,2.30
2019-03-18T06:48:50.175Z,2.53
2019-03-18T06:51:28.999Z,3.10
2019-03-18T06:54:13.686Z,2.67
2019-03-18T06:56:46.340Z,3.07
2019-03-18T06:59:24.408Z,3.20
2019-03-18T07:01:54.775Z,3.60
2019-03-18T07:04:27.401Z,2.90
2019-03-18T07:06:57.666Z,2.90
2019-03-18T07:09:28.075Z,2.70
2019-03-18T07:12:00.768Z,3.13
2019-03-18T07:14:30.342Z,2.55
2019-03-18T07:17:00.378Z,2.70
2019-03-18T07:19:30.811Z,2.60
2019-03-18T07:22:00.392Z,2.43
2019-03-18T07:24:33.290Z,2.20
2019-03-18T07:27:03.041Z,2.30
2019-03-18T07:29:38.361Z,4.03
2019-03-18T07:32:08.383Z,3.27
2019-03-18T07:34:38.408Z,4.93
2019-03-18T07:37:13.177Z,2.70
2019-03-18T07:39:47.934Z,2.40
2019-03-18T07:42:19.041Z,2.50
2019-03-18T07:44:48.529Z,1.80
2019-03-18T07:47:18.628Z,2.00
2019-03-18T07:49:50.450Z,1.95
2019-03-18T07:52:21.889Z,2.30
2019-03-18T07:54:52.038Z,2.23
2019-03-18T07:57:21.361Z,2.52
2019-03-18T07:59:50.733Z,2.53
2019-03-18T08:02:20.742Z,1.60
2019-03-18T08:04:50.083Z,2.00
2019-03-18T08:07:19.453Z,2.40
2019-03-18T08:09:48.817Z,2.13
2019-03-18T08:12:18.565Z,2.58
2019-03-18T08:14:48.289Z,2.20
2019-03-18T08:17:18.769Z,2.20
2019-03-18T08:19:48.121Z,2.62
2019-03-18T08:22:21.183Z,2.58
2019-03-18T08:24:50.976Z,2.63
2019-03-18T08:27:20.825Z,2.00
2019-03-18T08:29:55.254Z,2.67
2019-03-18T08:32:24.833Z,2.60
2019-03-18T08:34:54.235Z,2.23
2019-03-18T08:37:23.605Z,1.97
2019-03-18T08:39:53.934Z,2.35
2019-03-18T08:42:24.577Z,2.17
2019-03-18T08:44:54.416Z,2.50
2019-03-18T08:47:23.793Z,2.37
2019-03-18T08:49:53.570Z,2.30
2019-03-18T08:52:23.515Z,2.93
2019-03-18T08:54:53.074Z,2.70
2019-03-18T08:57:22.545Z,2.60
2019-03-18T08:59:52.530Z,2.20
2019-03-18T09:02:22.171Z,3.27
2019-03-18T09:04:51.697Z,2.87
2019-03-18T09:07:25.614Z,2.60
2019-03-18T09:09:58.022Z,3.10
2019-03-18T09:12:27.433Z,2.70
2019-03-18T09:14:59.159Z,2.57
2019-03-18T09:17:28.978Z,2.33
2019-03-18T09:20:00.935Z,2.20
2019-03-18T09:22:30.276Z,2.90
2019-03-18T09:24:59.648Z,2.60
2019-03-18T09:27:29.283Z,3.07
2019-03-18T09:29:58.976Z,2.87
2019-03-18T09:32:28.820Z,2.40
2019-03-18T09:34:59.037Z,1.80
2019-03-18T09:37:29.383Z,1.90
2019-03-18T09:39:59.164Z,1.80
2019-03-18T09:42:29.418Z,2.03
2019-03-18T09:44:59.814Z,1.80
2019-03-18T09:47:30.217Z,1.97
2019-03-18T09:50:00.905Z,1.93
2019-03-18T09:52:30.579Z,2.63
2019-03-18T09:55:00.738Z,2.33
2019-03-18T09:57:31.036Z,1.90
2019-03-18T10:00:01.698Z,1.83
2019-03-18T10:02:31.765Z,1.90
2019-03-18T10:05:02.045Z,2.25
2019-03-18T10:07:31.917Z,2.10
2019-03-18T10:10:03.283Z,2.60
2019-03-18T10:12:33.667Z,2.20
2019-03-18T10:15:03.022Z,2.62
2019-03-18T10:17:32.842Z,2.67
2019-03-18T10:20:02.507Z,2.47
2019-03-18T10:22:31.868Z,2.75
2019-03-18T10:25:04.074Z,3.80
2019-03-18T10:27:32.500Z,2.83
2019-03-18T10:30:04.501Z,3.03
2019-03-18T10:32:33.897Z,2.50
2019-03-18T10:35:04.709Z,2.90
2019-03-18T10:37:34.080Z,3.17
2019-03-18T10:40:04.920Z,1.83
2019-03-18T10:42:34.324Z,2.80
2019-03-18T10:45:05.271Z,2.30
2019-03-18T10:47:35.064Z,2.67
2019-03-18T10:50:05.528Z,2.17
2019-03-18T10:52:34.953Z,1.45
2019-03-18T10:55:05.023Z,1.70
2019-03-18T10:57:35.482Z,1.52
2019-03-18T11:00:05.868Z,2.00
2019-03-18T11:02:35.521Z,9.38
2019-03-18T11:05:08.059Z,2.70
2019-03-18T11:07:38.468Z,1.77
2019-03-18T11:10:09.121Z,2.03
2019-03-18T11:12:38.872Z,1.90
2019-03-18T11:15:13.405Z,1.90
2019-03-18T11:17:43.641Z,2.00
2019-03-18T11:20:13.965Z,2.47
2019-03-18T11:22:44.002Z,2.30
2019-03-18T11:25:14.504Z,2.52
2019-03-18T11:27:45.384Z,1.90
2019-03-18T11:30:19.902Z,2.02
2019-03-18T11:32:50.516Z,2.20
2019-03-18T11:35:21.994Z,2.17
2019-03-18T11:37:52.954Z,2.13
2019-03-18T11:40:24.162Z,2.23
2019-03-18T11:42:55.022Z,2.20
2019-03-18T11:45:25.289Z,2.20
2019-03-18T11:47:58.310Z,2.17
2019-03-18T11:50:28.426Z,2.43
2019-03-18T11:52:59.500Z,1.87
2019-03-18T11:55:32.626Z,1.77
2019-03-18T11:58:09.814Z,1.70
2019-03-18T12:00:43.308Z,1.70
2019-03-18T12:03:12.632Z,2.13
2019-03-18T12:05:44.341Z,2.30
2019-03-18T12:08:13.928Z,2.10
2019-03-18T12:10:43.652Z,2.00
2019-03-18T12:13:13.824Z,2.30
2019-03-18T12:15:46.934Z,1.60
2019-03-18T12:18:18.247Z,1.80
2019-03-18T12:20:48.354Z,1.87
2019-03-18T12:23:20.347Z,1.83
2019-03-18T12:25:54.078Z,1.70
2019-03-18T12:28:25.908Z,1.40
2019-03-18T12:30:57.176Z,1.50
2019-03-18T12:33:27.343Z,1.30
2019-03-18T12:35:56.767Z,1.70
2019-03-18T12:38:27.074Z,1.67
2019-03-18T12:40:59.260Z,1.13
2019-03-18T12:43:32.016Z,1.27
2019-03-18T12:46:01.624Z,1.60
2019-03-18T12:48:31.785Z,1.20
2019-03-18T12:51:01.871Z,1.70
2019-03-18T12:53:34.057Z,1.97
2019-03-18T12:56:03.397Z,1.50
2019-03-18T12:58:36.292Z,1.80
2019-03-18T13:01:12.599Z,2.00
2019-03-18T13:03:37.935Z,2.17
2019-03-18T13:06:07.544Z,2.10
2019-03-18T13:08:37.185Z,2.10
2019-03-18T13:11:07.291Z,1.77
2019-03-18T13:13:38.256Z,1.83
2019-03-18T13:16:08.493Z,1.83
2019-03-18T13:18:40.799Z,2.13
2019-03-18T13:21:10.653Z,1.87
2019-03-18T13:23:40.792Z,1.80
2019-03-18T13:26:10.145Z,1.80
2019-03-18T13:28:40.316Z,1.87
2019-03-18T13:31:09.720Z,2.30
2019-03-18T13:33:41.586Z,2.17
2019-03-18T13:36:12.047Z,2.00
2019-03-18T13:38:46.184Z,2.30
2019-03-18T13:41:19.428Z,2.12
2019-03-18T13:43:49.976Z,1.60
2019-03-18T13:46:19.322Z,2.10
2019-03-18T13:48:50.264Z,1.97
2019-03-18T13:51:21.477Z,1.43
2019-03-18T13:53:53.236Z,1.87
2019-03-18T13:56:23.357Z,2.12
2019-03-18T13:58:54.099Z,2.30
2019-03-18T14:01:23.432Z,2.00
2019-03-18T14:03:55.125Z,2.13
2019-03-18T14:06:25.783Z,1.80
2019-03-18T14:08:55.095Z,1.40
2019-03-18T14:11:24.705Z,1.52
2019-03-18T14:13:54.721Z,1.90
2019-03-18T14:16:24.460Z,2.05
2019-03-18T14:18:55.086Z,1.70
2019-03-18T14:21:33.115Z,1.67
2019-03-18T14:23:59.337Z,2.00
2019-03-18T14:26:31.293Z,2.40
2019-03-18T14:29:05.695Z,1.10
2019-03-18T14:31:38.619Z,1.20
2019-03-18T14:34:08.226Z,1.60
2019-03-18T14:36:41.468Z,1.30
2019-03-18T14:39:14.097Z,1.30
2019-03-18T14:41:44.433Z,1.20
2019-03-18T14:44:20.406Z,1.70
2019-03-18T14:46:57.568Z,1.30
2019-03-18T14:49:34.010Z,1.93
2019-03-18T14:52:11.627Z,1.80
2019-03-18T14:54:46.559Z,1.50
2019-03-18T14:57:18.151Z,1.40
2019-03-18T14:59:53.101Z,1.50
2019-03-18T15:02:22.602Z,2.53
2019-03-18T15:04:54.434Z,1.70
2019-03-18T15:07:25.067Z,1.70
2019-03-18T15:09:55.298Z,1.70
2019-03-18T15:12:26.062Z,1.93
2019-03-18T15:14:56.329Z,2.00
2019-03-18T15:17:29.235Z,2.13
2019-03-18T15:19:59.384Z,3.40
2019-03-18T15:22:28.752Z,2.23
2019-03-18T15:25:02.152Z,2.40
2019-03-18T15:27:31.526Z,1.80
2019-03-18T15:30:01.309Z,2.10
2019-03-18T15:32:30.649Z,2.10
2019-03-18T15:35:00.505Z,2.30
2019-03-18T15:37:31.465Z,2.60
2019-03-18T15:40:00.981Z,2.03
2019-03-18T15:42:30.814Z,2.17
2019-03-18T15:45:04.149Z,1.80
2019-03-18T15:47:34.512Z,1.87
2019-03-18T15:50:04.201Z,3.10
2019-03-18T15:52:34.412Z,8.43
2019-03-18T15:55:04.109Z,2.50
2019-03-18T15:57:33.568Z,1.90
2019-03-18T16:00:03.070Z,3.10
2019-03-18T16:02:37.627Z,3.30
2019-03-18T16:05:10.401Z,2.83
2019-03-18T16:07:40.514Z,3.50
2019-03-18T16:10:10.809Z,2.23
2019-03-18T16:12:40.939Z,2.10
2019-03-18T16:15:11.186Z,5.87
2019-03-18T16:17:41.800Z,3.37
2019-03-18T16:20:13.982Z,2.40
2019-03-18T16:22:45.001Z,2.97
2019-03-18T16:25:19.917Z,2.56
2019-03-18T16:27:50.491Z,2.60
2019-03-18T16:30:21.493Z,3.75
2019-03-18T16:32:53.651Z,3.97
2019-03-18T16:35:27.591Z,2.92
2019-03-18T16:38:01.205Z,2.40
2019-03-18T16:40:31.998Z,3.07
2019-03-18T16:43:02.692Z,2.73
2019-03-18T16:45:33.327Z,2.83
2019-03-18T16:48:03.993Z,3.10
2019-03-18T16:50:34.842Z,3.60
2019-03-18T16:53:07.284Z,3.20
2019-03-18T16:55:37.804Z,4.03
2019-03-18T16:58:08.450Z,3.93
2019-03-18T17:00:38.232Z,3.87
2019-03-18T17:03:07.895Z,4.60
2019-03-18T17:05:37.524Z,3.57
2019-03-18T17:08:06.945Z,3.20
2019-03-18T17:10:36.586Z,3.73
2019-03-18T17:13:05.981Z,4.70
2019-03-18T17:15:36.241Z,4.20
2019-03-18T17:18:05.538Z,4.50
2019-03-18T17:20:36.158Z,4.22
2019-03-18T17:23:05.936Z,3.73
2019-03-18T17:25:35.313Z,3.10
2019-03-18T17:28:04.952Z,4.30
2019-03-18T17:30:34.389Z,3.80
2019-03-18T17:33:03.748Z,3.67
2019-03-18T17:35:33.353Z,4.00
2019-03-18T17:38:03.403Z,6.67
2019-03-18T17:40:32.869Z,4.67
2019-03-18T17:43:02.224Z,4.47
2019-03-18T17:45:32.004Z,3.40
2019-03-18T17:48:01.860Z,2.77
2019-03-18T17:50:33.085Z,2.60
2019-03-18T17:53:04.264Z,2.97
2019-03-18T17:55:35.898Z,3.35
2019-03-18T17:58:06.855Z,3.30
2019-03-18T18:00:44.105Z,3.10
2019-03-18T18:03:14.592Z,3.23
2019-03-18T18:05:44.632Z,4.30
2019-03-18T18:08:20.252Z,4.50
2019-03-18T18:10:50.586Z,5.27
2019-03-18T18:13:21.001Z,6.50
2019-03-18T18:15:51.795Z,4.27
2019-03-18T18:18:23.739Z,4.65
2019-03-18T18:20:54.396Z,3.90
2019-03-18T18:23:25.144Z,3.60
2019-03-18T18:25:55.241Z,5.00
2019-03-18T18:28:28.424Z,4.13
2019-03-18T18:31:01.641Z,3.90
2019-03-18T18:33:35.924Z,3.43
2019-03-18T18:36:06.142Z,4.00
2019-03-18T18:38:36.725Z,3.80
2019-03-18T18:41:07.090Z,4.67
2019-03-18T18:43:37.364Z,4.40
2019-03-18T18:46:08.226Z,4.87
2019-03-18T18:48:39.169Z,6.30
2019-03-18T18:51:09.361Z,6.63
2019-03-18T18:53:40.040Z,7.00
2019-03-18T18:56:10.699Z,5.63
2019-03-18T18:58:41.791Z,7.03
2019-03-18T19:01:15.379Z,6.53
2019-03-18T19:03:45.003Z,7.40
2019-03-18T19:06:16.169Z,7.13
2019-03-18T19:08:45.552Z,6.87
2019-03-18T19:11:19.050Z,6.50
2019-03-18T19:13:49.468Z,8.47
2019-03-18T19:16:20.111Z,8.70
2019-03-18T19:18:49.893Z,7.77
2019-03-18T19:21:19.257Z,7.67
2019-03-18T19:23:48.659Z,6.40
2019-03-18T19:26:20.070Z,6.35
2019-03-18T19:28:49.671Z,6.63
2019-03-18T19:31:20.933Z,5.80
2019-03-18T19:33:50.228Z,6.57
2019-03-18T19:36:19.945Z,7.47
2019-03-18T19:38:50.057Z,8.17
2019-03-18T19:41:20.341Z,7.80
2019-03-18T19:43:50.063Z,6.70
2019-03-18T19:46:20.097Z,6.63
2019-03-18T19:48:51.127Z,6.77
2019-03-18T19:51:21.728Z,7.40
2019-03-18T19:53:52.263Z,6.47
2019-03-18T19:56:21.650Z,7.15
2019-03-18T19:58:52.251Z,6.05
2019-03-18T20:01:21.766Z,6.92
2019-03-18T20:03:51.141Z,6.40
2019-03-18T20:06:20.663Z,6.50
2019-03-18T20:08:50.065Z,6.28
2019-03-18T20:11:21.789Z,6.70
2019-03-18T20:13:51.475Z,5.97
2019-03-18T20:16:21.829Z,4.83
2019-03-18T20:18:52.773Z,5.40
2019-03-18T20:21:22.150Z,7.80
2019-03-18T20:24:00.748Z,6.40
2019-03-18T20:26:27.148Z,6.97
2019-03-18T20:28:56.583Z,8.80
2019-03-18T20:31:27.136Z,7.53
2019-03-18T20:33:56.561Z,6.80
2019-03-18T20:36:26.695Z,7.13
2019-03-18T20:38:57.471Z,6.65
2019-03-18T20:41:27.792Z,6.97
2019-03-18T20:43:57.380Z,6.50
2019-03-18T20:46:27.132Z,6.90
2019-03-18T20:48:57.279Z,5.83
2019-03-18T20:51:27.365Z,5.40
2019-03-18T20:53:56.694Z,6.13
2019-03-18T20:56:27.433Z,4.65
2019-03-18T20:58:57.402Z,5.60
2019-03-18T21:01:28.861Z,6.80
2019-03-18T21:03:58.480Z,8.37
2019-03-18T21:06:28.184Z,8.40
2019-03-18T21:08:58.533Z,7.13
2019-03-18T21:11:32.816Z,8.50
2019-03-18T21:14:02.951Z,8.40
2019-03-18T21:16:33.494Z,11.10
2019-03-18T21:19:03.792Z,13.57
2019-03-18T21:21:33.324Z,13.30
2019-03-18T21:24:03.448Z,10.20
2019-03-18T21:26:33.141Z,7.03
2019-03-18T21:29:03.021Z,6.87
2019-03-18T21:31:32.757Z,6.55
2019-03-18T21:34:02.456Z,7.95
2019-03-18T21:36:38.105Z,6.70
2019-03-18T21:39:05.189Z,5.57
2019-03-18T21:41:34.657Z,5.90
2019-03-18T21:44:04.056Z,5.55
2019-03-18T21:46:33.509Z,5.20
2019-03-18T21:49:03.576Z,5.60
2019-03-18T21:51:34.169Z,5.70
2019-03-18T21:54:03.601Z,5.60
2019-03-18T21:56:33.325Z,3.97
2019-03-18T21:59:03.232Z,4.40
2019-03-18T22:01:33.625Z,3.77
2019-03-18T22:04:02.997Z,3.60
2019-03-18T22:06:32.509Z,3.53
2019-03-18T22:09:02.475Z,3.23
2019-03-18T22:11:35.511Z,3.77
2019-03-18T22:14:04.902Z,3.80
2019-03-18T22:16:34.635Z,3.12
2019-03-18T22:19:04.490Z,3.37
2019-03-18T22:21:36.133Z,2.90
2019-03-18T22:24:14.186Z,2.80
2019-03-18T22:26:37.628Z,2.93
2019-03-18T22:29:08.542Z,3.50
2019-03-18T22:31:38.252Z,3.23
2019-03-18T22:34:07.952Z,3.93
2019-03-18T22:36:37.579Z,3.60
2019-03-18T22:39:09.529Z,4.10
2019-03-18T22:41:38.926Z,4.00
2019-03-18T22:44:08.636Z,3.87
2019-03-18T22:46:38.311Z,4.50
2019-03-18T22:49:07.884Z,4.60
2019-03-18T22:51:37.560Z,5.40
2019-03-18T22:54:07.670Z,4.60
2019-03-18T22:56:37.024Z,5.00
2019-03-18T22:59:06.710Z,5.57
2019-03-18T23:01:36.298Z,5.45
2019-03-18T23:04:06.579Z,5.23
2019-03-18T23:06:36.846Z,5.70
2019-03-18T23:09:08.837Z,5.90
2019-03-18T23:11:38.586Z,7.30
2019-03-18T23:14:08.684Z,7.03
2019-03-18T23:16:38.213Z,6.42
2019-03-18T23:19:07.648Z,8.53
2019-03-18T23:21:37.237Z,7.75
2019-03-18T23:24:06.657Z,8.83
2019-03-18T23:26:36.033Z,9.25
2019-03-18T23:29:05.408Z,9.57
2019-03-18T23:31:35.657Z,7.80
2019-03-18T23:34:05.877Z,6.60
2019-03-18T23:36:40.792Z,6.67
2019-03-18T23:39:10.344Z,6.20
2019-03-18T23:41:39.728Z,7.53
2019-03-18T23:44:09.152Z,7.43
2019-03-18T23:46:39.488Z,8.60
2019-03-18T23:49:08.799Z,8.37
2019-03-18T23:51:38.545Z,9.20
2019-03-18T23:54:08.366Z,9.60
2019-03-18T23:56:38.064Z,9.40
2019-03-18T23:59:07.872Z,10.43
